Time;durP1;ratioP1;P1;durP2;ratioP2;P2;SDS_P1;SDS_P2;PMS_P1;PMS_P2;Temp;Humidity;BMP_temperature;BMP_pressure;BME280_temperature;BME280_humidity;BME280_pressure;Samples;Min_cycle;Max_cycle;Signal;HPM_P1;HPM_P2
2022/02/18 00:02:13;;;;;;;7.27;1.70;;;;;;;9.19;100.00;99001.19;5075208;28;20202;-76
2022/02/18 00:04:46;;;;;;;6.07;1.30;;;;;;;9.36;100.00;99005.91;5075232;28;20200;-76
2022/02/18 00:07:16;;;;;;;4.80;1.30;;;;;;;9.29;100.00;98993.44;5075059;28;20178;-75
2022/02/18 00:09:45;;;;;;;4.63;1.30;;;;;;;9.42;100.00;99019.19;5076096;28;20242;-76
2022/02/18 00:12:15;;;;;;;6.33;1.60;;;;;;;9.51;100.00;99017.03;5075816;28;20205;-76
2022/02/18 00:14:53;;;;;;;5.70;1.80;;;;;;;9.58;100.00;99021.22;5107761;22;20224;-75
2022/02/18 00:17:39;;;;;;;5.83;1.50;;;;;;;9.40;100.00;99034.63;5061921;28;20237;-75
2022/02/18 00:20:10;;;;;;;5.30;1.87;;;;;;;9.31;100.00;99029.81;5078890;28;20173;-76
2022/02/18 00:22:39;;;;;;;6.53;1.73;;;;;;;9.28;100.00;99023.88;5095864;28;20198;-75
2022/02/18 00:25:27;;;;;;;5.33;1.50;;;;;;;9.13;100.00;99023.47;5095459;28;20237;-75
2022/02/18 00:28:17;;;;;;;6.50;1.60;;;;;;;9.15;100.00;99029.41;5102349;22;20271;-75
2022/02/18 00:30:49;;;;;;;6.77;1.60;;;;;;;9.17;100.00;99029.19;5078693;28;20193;-75
2022/02/18 00:33:30;;;;;;;8.30;1.93;;;;;;;9.03;100.00;99025.03;5082073;23;20244;-76
2022/02/18 00:36:07;;;;;;;8.70;2.07;;;;;;;8.99;100.00;99018.53;5094534;22;20224;-76
2022/02/18 00:39:01;;;;;;;9.37;1.70;;;;;;;9.02;100.00;99020.72;5096049;28;20193;-75
2022/02/18 00:41:30;;;;;;;5.37;2.07;;;;;;;8.93;100.00;99032.75;5096681;28;20201;-76
2022/02/18 00:44:00;;;;;;;8.13;1.90;;;;;;;8.90;100.00;99035.88;5093918;28;20172;-76
2022/02/18 00:46:36;;;;;;;5.97;1.73;;;;;;;8.96;100.00;99035.00;5095838;28;20642;-76
2022/02/18 00:49:07;;;;;;;5.00;1.70;;;;;;;8.99;100.00;99037.22;5077565;28;20193;-76
2022/02/18 00:51:39;;;;;;;7.47;2.00;;;;;;;8.95;100.00;99044.06;5101995;22;20213;-75
2022/02/18 00:54:14;;;;;;;8.17;2.20;;;;;;;8.92;100.00;99047.16;5064419;23;20227;-75
2022/02/18 00:56:50;;;;;;;7.30;1.80;;;;;;;8.94;100.00;99042.41;5074497;28;20193;-75
2022/02/18 00:59:18;;;;;;;5.90;2.10;;;;;;;8.94;100.00;99045.09;5074866;28;20254;-76
2022/02/18 01:02:04;;;;;;;7.37;2.00;;;;;;;9.12;100.00;99050.41;5106491;22;20239;-75
2022/02/18 01:04:32;;;;;;;9.00;2.40;;;;;;;9.13;100.00;99034.16;5097010;22;20234;-75
2022/02/18 01:07:20;;;;;;;7.70;2.10;;;;;;;9.32;100.00;99044.84;5094748;28;20197;-75
2022/02/18 01:09:53;;;;;;;7.80;2.30;;;;;;;9.20;100.00;99034.88;5100360;22;20240;-76
2022/02/18 01:12:36;;;;;;;8.03;2.10;;;;;;;9.27;100.00;99040.97;5100232;22;20255;-75
2022/02/18 01:15:16;;;;;;;10.67;2.43;;;;;;;9.28;100.00;99039.13;5081368;22;20667;-75
2022/02/18 01:18:06;;;;;;;10.80;2.30;;;;;;;9.41;100.00;99040.81;5074131;28;20232;-76
2022/02/18 01:20:33;;;;;;;9.63;2.53;;;;;;;9.34;100.00;99029.38;5112354;22;20224;-75
2022/02/18 01:23:10;;;;;;;9.47;2.43;;;;;;;9.45;100.00;99041.97;5080942;28;20606;-76
2022/02/18 01:25:41;;;;;;;10.17;2.50;;;;;;;9.46;100.00;99047.09;5113084;28;20193;-76
2022/02/18 01:28:34;;;;;;;6.90;2.40;;;;;;;9.51;100.00;99057.13;5100181;28;20188;-75
2022/02/18 01:31:02;;;;;;;9.70;2.60;;;;;;;9.58;100.00;99052.50;5114189;28;20189;-75
2022/02/18 01:33:47;;;;;;;9.03;2.67;;;;;;;9.57;100.00;99054.34;5100864;22;20592;-75
2022/02/18 01:36:34;;;;;;;9.03;2.17;;;;;;;9.61;100.00;99063.53;5078515;28;20489;-76
2022/02/18 01:39:01;;;;;;;6.97;2.43;;;;;;;9.60;100.00;99061.94;5098345;22;20506;-75
2022/02/18 01:41:33;;;;;;;12.47;2.70;;;;;;;9.65;100.00;99069.28;5051021;23;20233;-75
2022/02/18 01:44:38;;;;;;;6.67;2.23;;;;;;;9.67;100.00;99078.69;5072298;28;20177;-76
2022/02/18 01:47:35;;;;;;;8.77;2.33;;;;;;;9.72;100.00;99078.84;5071709;28;20185;-76
2022/02/18 01:50:07;;;;;;;10.20;2.40;;;;;;;9.80;100.00;99084.91;5070876;28;20165;-76
2022/02/18 01:52:58;;;;;;;7.30;2.60;;;;;;;9.80;100.00;99077.69;5071272;28;20182;-76
2022/02/18 01:55:34;;;;;;;11.03;3.30;;;;;;;9.76;100.00;99086.38;5070176;28;20196;-76
2022/02/18 01:58:09;;;;;;;8.97;2.20;;;;;;;9.78;100.00;99079.78;5071334;28;20249;-76
2022/02/18 02:00:42;;;;;;;9.33;2.60;;;;;;;9.84;100.00;99088.78;5080281;23;20228;-75
2022/02/18 02:03:21;;;;;;;11.40;2.80;;;;;;;9.91;100.00;99076.91;5085753;22;20215;-75
2022/02/18 02:05:55;;;;;;;7.67;2.37;;;;;;;9.85;100.00;99090.38;5095626;28;20188;-75
2022/02/18 02:08:28;;;;;;;6.50;2.33;;;;;;;9.88;100.00;99077.38;5114152;28;20243;-76
2022/02/18 02:10:56;;;;;;;10.87;2.60;;;;;;;9.87;100.00;99085.63;5111617;28;20252;-76
2022/02/18 02:13:58;;;;;;;6.90;1.90;;;;;;;9.85;100.00;99088.53;5113079;28;20242;-76
2022/02/18 02:16:28;;;;;;;9.43;2.43;;;;;;;9.90;100.00;99085.16;5093909;22;20228;-75
2022/02/18 02:19:03;;;;;;;7.97;2.20;;;;;;;10.04;100.00;99099.97;5093625;28;20179;-75
2022/02/18 02:22:18;;;;;;;9.67;2.63;;;;;;;9.99;100.00;99105.19;5107509;22;20247;-76
2022/02/18 02:24:59;;;;;;;8.13;2.13;;;;;;;9.96;100.00;99090.44;5078716;23;20233;-76
2022/02/18 02:27:52;;;;;;;10.10;2.37;;;;;;;10.05;100.00;99086.38;5059978;28;20257;-76
2022/02/18 02:30:22;;;;;;;7.83;2.13;;;;;;;9.98;100.00;99090.22;5074541;28;20249;-76
2022/02/18 02:33:02;;;;;;;11.67;2.50;;;;;;;10.02;100.00;99086.84;5080998;23;20214;-76
2022/02/18 02:36:28;;;;;;;10.27;2.27;;;;;;;9.90;100.00;99077.13;5065711;28;20201;-76
2022/02/18 02:39:19;;;;;;;12.10;2.80;;;;;;;9.87;100.00;99088.31;5073493;28;20166;-76
2022/02/18 02:41:59;;;;;;;7.73;2.77;;;;;;;10.02;100.00;99096.72;5047334;23;20221;-76
2022/02/18 02:44:34;;;;;;;7.60;2.23;;;;;;;9.86;100.00;99076.78;5067494;23;20229;-75
2022/02/18 02:47:25;;;;;;;6.53;2.10;;;;;;;9.95;100.00;99091.47;5057951;28;20265;-76
2022/02/18 02:50:17;;;;;;;11.60;2.20;;;;;;;9.97;100.00;99091.25;5073264;28;20214;-76
2022/02/18 02:52:46;;;;;;;8.63;2.27;;;;;;;9.96;100.00;99089.59;5045909;23;20230;-76
2022/02/18 02:55:20;;;;;;;12.03;2.63;;;;;;;10.00;100.00;99083.56;5053173;28;20186;-76
2022/02/18 02:57:50;;;;;;;9.70;2.73;;;;;;;9.96;100.00;99089.59;5035592;28;20207;-76
2022/02/18 03:00:43;;;;;;;8.80;2.23;;;;;;;9.93;100.00;99098.94;5035563;28;20194;-76
2022/02/18 03:03:32;;;;;;;11.07;2.73;;;;;;;9.97;100.00;99092.06;5033999;28;20192;-76
2022/02/18 03:06:04;;;;;;;8.70;2.13;;;;;;;9.96;100.00;99092.28;5080370;23;20228;-76
2022/02/18 03:08:37;;;;;;;11.30;3.03;;;;;;;10.03;95.53;99093.81;5072580;28;20189;-76
2022/02/18 03:11:24;;;;;;;9.27;2.03;;;;;;;9.96;97.34;99092.28;5056602;28;20524;-76
2022/02/18 03:14:14;;;;;;;9.23;2.27;;;;;;;9.91;98.70;99084.94;5095907;22;20232;-76
2022/02/18 03:17:12;;;;;;;8.57;2.20;;;;;;;9.92;98.59;99075.88;5058752;28;20220;-76
2022/02/18 03:19:39;;;;;;;7.33;2.23;;;;;;;9.85;98.24;99074.31;5068976;28;20181;-76
2022/02/18 03:22:14;;;;;;;7.87;2.50;;;;;;;9.83;99.56;99081.78;5086693;28;20231;-76
2022/02/18 03:24:40;;;;;;;11.23;2.67;;;;;;;9.66;100.00;99079.72;5074770;22;20193;-76
2022/02/18 03:27:09;;;;;;;8.37;2.20;;;;;;;9.73;100.00;99079.66;5052271;28;20549;-76
2022/02/18 03:29:39;;;;;;;10.93;2.20;;;;;;;9.64;100.00;99083.69;5072173;28;20185;-76
2022/02/18 03:32:16;;;;;;;8.87;2.07;;;;;;;9.45;100.00;99087.44;5093680;22;20236;-76
2022/02/18 03:34:43;;;;;;;8.57;2.20;;;;;;;9.54;100.00;99081.56;5051672;28;20501;-76
2022/02/18 03:37:14;;;;;;;8.13;2.70;;;;;;;9.69;100.00;99081.97;5091176;28;20268;-76
2022/02/18 03:39:41;;;;;;;9.73;2.27;;;;;;;9.66;98.15;99082.41;5073638;28;20208;-76
2022/02/18 03:42:09;;;;;;;9.27;2.40;;;;;;;9.64;99.99;99078.34;5069127;28;20209;-76
2022/02/18 03:44:41;;;;;;;10.17;2.43;;;;;;;9.57;100.00;99077.59;5070838;28;20199;-76
2022/02/18 03:47:13;;;;;;;9.70;2.60;;;;;;;9.59;100.00;99081.69;5069825;28;20225;-76
2022/02/18 03:49:40;;;;;;;7.00;2.00;;;;;;;9.54;100.00;99086.09;5072447;28;20198;-76
2022/02/18 03:52:12;;;;;;;8.73;2.53;;;;;;;9.42;100.00;99072.69;5088168;28;20642;-76
2022/02/18 03:54:39;;;;;;;9.13;2.33;;;;;;;9.51;100.00;99074.00;5086399;28;20216;-76
2022/02/18 03:57:06;;;;;;;10.63;2.60;;;;;;;9.51;100.00;99065.16;5072340;28;20200;-76
2022/02/18 03:59:34;;;;;;;8.57;2.67;;;;;;;9.42;100.00;99074.53;5069739;28;20185;-76
2022/02/18 04:02:06;;;;;;;12.47;2.63;;;;;;;9.45;100.00;99074.88;5069221;28;20632;-76
2022/02/18 04:04:35;;;;;;;11.93;2.50;;;;;;;9.46;99.06;99065.00;5090573;28;20198;-76
2022/02/18 04:07:21;;;;;;;7.63;2.43;;;;;;;9.45;99.40;99068.72;5077140;22;20218;-76
2022/02/18 04:09:54;;;;;;;7.47;2.20;;;;;;;9.50;97.80;99075.03;5070412;28;20204;-76
2022/02/18 04:12:25;;;;;;;9.17;2.27;;;;;;;9.47;97.33;99064.75;5054634;28;20188;-76
2022/02/18 04:15:04;;;;;;;10.33;2.03;;;;;;;9.40;97.77;99073.94;5074121;28;20185;-76
2022/02/18 04:17:33;;;;;;;8.57;2.47;;;;;;;9.41;96.94;99092.44;5086489;28;20192;-76
2022/02/18 04:20:13;;;;;;;10.33;2.30;;;;;;;9.41;96.07;99079.06;5070208;28;20191;-76
2022/02/18 04:23:21;;;;;;;7.80;1.90;;;;;;;9.49;93.60;99065.38;5074564;28;20227;-76
2022/02/18 04:25:56;;;;;;;8.17;2.10;;;;;;;9.46;94.47;99065.81;5089364;28;20185;-76
2022/02/18 04:28:25;;;;;;;10.23;2.50;;;;;;;9.41;96.13;99073.72;5088714;28;20184;-76
2022/02/18 04:30:54;;;;;;;8.37;2.10;;;;;;;9.42;96.75;99071.84;5087190;28;20230;-76
2022/02/18 04:33:20;;;;;;;12.73;2.60;;;;;;;9.42;94.75;99072.69;5088628;28;20189;-76
2022/02/18 04:35:47;;;;;;;8.80;2.50;;;;;;;9.46;93.80;99084.53;5087343;28;20224;-76
2022/02/18 04:38:15;;;;;;;9.40;1.90;;;;;;;9.47;95.57;99091.50;5053592;28;20555;-76
2022/02/18 04:40:47;;;;;;;11.00;2.57;;;;;;;9.31;97.49;99099.34;5071277;28;20264;-76
2022/02/18 04:43:14;;;;;;;9.20;2.10;;;;;;;9.23;98.92;99103.97;5091441;28;20197;-76
2022/02/18 04:45:44;;;;;;;9.73;2.20;;;;;;;9.20;99.09;99104.38;5090858;28;20250;-76
2022/02/18 04:48:16;;;;;;;8.33;2.13;;;;;;;9.16;100.00;99111.22;5091960;28;20215;-76
2022/02/18 04:50:46;;;;;;;9.07;2.10;;;;;;;9.18;100.00;99111.00;5085537;22;20190;-75
2022/02/18 04:53:36;;;;;;;11.40;2.47;;;;;;;9.00;100.00;99130.53;5071512;28;20631;-76
2022/02/18 04:56:08;;;;;;;8.07;2.30;;;;;;;8.88;100.00;99124.25;5072907;28;20211;-76
2022/02/18 04:58:41;;;;;;;11.87;2.43;;;;;;;8.75;100.00;99127.88;5072185;28;20259;-76
2022/02/18 05:01:15;;;;;;;13.90;2.70;;;;;;;8.64;100.00;99123.25;5070654;28;20203;-76
2022/02/18 05:03:43;;;;;;;10.97;3.23;;;;;;;8.56;100.00;99128.06;5072324;28;20554;-75
2022/02/18 05:06:12;;;;;;;9.23;2.30;;;;;;;8.44;100.00;99127.97;5070118;28;20193;-75
2022/02/18 05:08:43;;;;;;;10.87;2.27;;;;;;;8.31;100.00;99128.03;5071628;28;20481;-76
2022/02/18 05:11:10;;;;;;;11.73;2.63;;;;;;;8.24;100.00;99121.91;5069115;28;20198;-76
2022/02/18 05:13:38;;;;;;;11.30;3.27;;;;;;;8.20;100.00;99128.72;5051791;28;20500;-76
2022/02/18 05:16:05;;;;;;;10.37;2.30;;;;;;;8.08;100.00;99127.75;5064030;28;20487;-76
2022/02/18 05:18:37;;;;;;;8.47;2.67;;;;;;;8.08;100.00;99131.25;5068377;28;20201;-76
2022/02/18 05:21:06;;;;;;;8.50;2.57;;;;;;;8.04;100.00;99134.56;5071722;28;20202;-76
2022/02/18 05:23:36;;;;;;;7.90;2.20;;;;;;;7.98;100.00;99123.72;5081717;22;20271;-76
2022/02/18 05:26:03;;;;;;;8.93;2.07;;;;;;;8.01;100.00;99111.00;5092281;28;20197;-76
2022/02/18 05:28:50;;;;;;;10.17;2.20;;;;;;;7.98;100.00;99115.72;5056884;28;20200;-76
2022/02/18 05:31:25;;;;;;;9.37;2.53;;;;;;;7.90;100.00;99110.66;5078581;22;20284;-77
2022/02/18 05:33:55;;;;;;;8.10;2.43;;;;;;;7.91;100.00;99108.81;5052995;28;20260;-76
2022/02/18 05:36:44;;;;;;;10.70;2.40;;;;;;;7.87;100.00;99116.44;5072691;28;20203;-77
2022/02/18 05:39:10;;;;;;;8.50;2.23;;;;;;;7.82;100.00;99123.44;5092219;28;20493;-76
2022/02/18 05:41:46;;;;;;;9.90;3.57;;;;;;;7.81;100.00;99121.78;5093540;23;20304;-76
2022/02/18 05:44:14;;;;;;;11.57;3.67;;;;;;;7.79;100.00;99122.00;5066572;28;20205;-75
2022/02/18 05:46:42;;;;;;;13.27;5.77;;;;;;;7.73;100.00;99120.19;5068399;28;20182;-76
2022/02/18 05:49:11;;;;;;;13.53;4.63;;;;;;;7.70;100.00;99112.59;5066685;28;20189;-76
2022/02/18 05:51:38;;;;;;;14.83;4.70;;;;;;;7.71;100.00;99116.09;5073439;23;20297;-76
2022/02/18 05:54:26;;;;;;;14.17;7.27;;;;;;;7.62;100.00;99126.19;5069575;28;20181;-76
2022/02/18 05:56:57;;;;;;;17.37;9.90;;;;;;;7.59;100.00;99131.13;5071805;28;20233;-76
2022/02/18 05:59:24;;;;;;;14.30;6.40;;;;;;;7.55;100.00;99128.09;5084426;22;20259;-75
2022/02/18 06:01:55;;;;;;;10.40;5.80;;;;;;;7.48;100.00;99133.44;5081295;23;20232;-75
2022/02/18 06:04:22;;;;;;;14.90;5.83;;;;;;;7.44;100.00;99134.88;5074257;28;20189;-75
2022/02/18 06:06:51;;;;;;;10.60;4.80;;;;;;;7.44;100.00;99140.22;5091229;28;20181;-76
2022/02/18 06:09:22;;;;;;;17.83;7.57;;;;;;;7.41;100.00;99139.81;5088525;28;20181;-76
2022/02/18 06:11:49;;;;;;;31.37;19.07;;;;;;;7.43;100.00;99146.56;5086846;28;20250;-75
2022/02/18 06:14:22;;;;;;;25.57;13.20;;;;;;;7.40;100.00;99156.84;5088426;28;20177;-76
2022/02/18 06:16:48;;;;;;;20.80;9.37;;;;;;;7.43;100.00;99157.22;5071788;28;20209;-76
2022/02/18 06:19:15;;;;;;;22.87;9.80;;;;;;;7.44;100.00;99158.06;5073801;28;20184;-76
2022/02/18 06:21:43;;;;;;;13.20;5.33;;;;;;;7.50;100.00;99147.38;5090836;28;20500;-76
2022/02/18 06:24:10;;;;;;;11.83;5.50;;;;;;;7.59;100.00;99144.47;5089591;28;20181;-76
2022/02/18 06:26:45;;;;;;;8.90;3.40;;;;;;;7.64;100.00;99144.66;5088573;28;20191;-76
2022/02/18 06:29:15;;;;;;;9.03;3.20;;;;;;;7.72;100.00;99139.06;5093900;22;20263;-76
2022/02/18 06:31:44;;;;;;;9.90;3.17;;;;;;;7.73;100.00;99136.19;5089735;23;20236;-76
2022/02/18 06:34:11;;;;;;;6.77;2.90;;;;;;;7.88;100.00;99139.41;5070366;28;20194;-76
2022/02/18 06:36:39;;;;;;;8.30;2.53;;;;;;;8.05;100.00;99133.53;5078619;22;20185;-75
2022/02/18 06:39:07;;;;;;;10.57;2.77;;;;;;;8.25;100.00;99140.41;5072284;28;20208;-75
2022/02/18 06:41:36;;;;;;;11.67;3.03;;;;;;;8.38;100.00;99152.84;5090326;28;20245;-75
2022/02/18 06:44:09;;;;;;;10.23;2.70;;;;;;;8.61;100.00;99154.91;5094744;22;20243;-76
2022/02/18 06:46:40;;;;;;;10.43;2.80;;;;;;;8.82;100.00;99159.84;5070746;28;20181;-76
2022/02/18 06:49:13;;;;;;;13.07;2.70;;;;;;;9.07;100.00;99157.97;5089313;28;20181;-76
2022/02/18 06:51:40;;;;;;;8.87;2.57;;;;;;;9.32;100.00;99139.22;5071731;28;20212;-76
2022/02/18 06:54:07;;;;;;;11.67;2.70;;;;;;;9.61;100.00;99157.16;5069894;28;20212;-76
2022/02/18 06:56:55;;;;;;;10.40;2.50;;;;;;;10.07;100.00;99155.75;5089522;28;20211;-76
2022/02/18 06:59:24;;;;;;;12.87;2.37;;;;;;;10.37;100.00;99166.44;5086995;28;20187;-76
2022/02/18 07:01:54;;;;;;;11.10;2.30;;;;;;;10.62;97.71;99180.47;5088138;28;20189;-76
2022/02/18 07:04:23;;;;;;;10.53;2.33;;;;;;;10.85;93.83;99179.69;5087357;28;20235;-76
2022/02/18 07:06:51;;;;;;;12.03;2.90;;;;;;;11.11;93.70;99189.13;5086900;28;20189;-76
2022/02/18 07:09:18;;;;;;;11.17;2.50;;;;;;;11.20;90.48;99190.44;5087008;28;20192;-76
2022/02/18 07:11:48;;;;;;;9.53;2.57;;;;;;;11.45;89.51;99190.97;5091259;28;20228;-75
2022/02/18 07:14:25;;;;;;;9.17;2.80;;;;;;;11.69;88.91;99195.25;5090981;28;20181;-76
2022/02/18 07:17:08;;;;;;;8.63;2.60;;;;;;;11.83;87.78;99204.69;5090957;28;20635;-76
2022/02/18 07:19:36;;;;;;;9.27;2.13;;;;;;;12.01;85.59;99201.00;5089241;28;20618;-76
2022/02/18 07:22:08;;;;;;;10.60;2.97;;;;;;;12.22;82.91;99199.53;5089904;28;20197;-76
2022/02/18 07:24:40;;;;;;;10.07;2.43;;;;;;;12.34;84.58;99200.28;5099530;22;20176;-73
2022/02/18 07:27:10;;;;;;;12.03;2.93;;;;;;;12.52;88.79;99186.63;5071813;28;20205;-74
2022/02/18 07:29:43;;;;;;;11.47;2.70;;;;;;;12.77;86.46;99197.81;5079436;22;20291;-74
2022/02/18 07:32:33;;;;;;;12.20;3.03;;;;;;;12.99;83.83;99183.63;5087557;28;20189;-75
2022/02/18 07:35:00;;;;;;;8.90;3.07;;;;;;;12.54;86.40;99179.16;5087405;28;20185;-75
2022/02/18 07:38:15;;;;;;;8.00;2.30;;;;;;;12.57;83.10;99181.34;5073425;28;20181;-74
2022/02/18 07:40:49;;;;;;;9.60;2.20;;;;;;;12.57;82.85;99183.22;5072994;28;20262;-75
2022/02/18 07:43:19;;;;;;;11.90;2.80;;;;;;;12.57;82.80;99189.41;5090521;28;20204;-75
2022/02/18 07:46:10;;;;;;;11.30;2.57;;;;;;;12.56;83.34;99185.09;5090083;28;20177;-75
2022/02/18 07:48:59;;;;;;;8.83;2.27;;;;;;;12.60;80.48;99188.09;5090503;28;20185;-75
2022/02/18 07:51:27;;;;;;;10.67;2.40;;;;;;;12.85;80.69;99183.16;5089832;28;20189;-75
2022/02/18 07:53:54;;;;;;;8.97;2.37;;;;;;;13.05;75.92;99171.91;5084957;28;20201;-75
2022/02/18 07:56:24;;;;;;;9.60;2.60;;;;;;;13.49;74.69;99178.19;5089543;23;20225;-75
2022/02/18 07:58:51;;;;;;;10.87;2.70;;;;;;;13.74;74.60;99186.59;5068420;28;20537;-75
2022/02/18 08:01:22;;;;;;;10.53;2.63;;;;;;;13.78;73.22;99176.94;5053216;28;20205;-75
2022/02/18 08:03:53;;;;;;;10.80;2.80;;;;;;;13.92;72.68;99172.81;5068950;28;20248;-76
2022/02/18 08:06:24;;;;;;;10.13;2.57;;;;;;;13.85;69.75;99166.81;5053218;28;20235;-75
2022/02/18 08:08:53;;;;;;;8.67;2.33;;;;;;;13.97;71.53;99178.25;5070715;28;20189;-75
2022/02/18 08:11:28;;;;;;;10.13;2.53;;;;;;;14.06;71.69;99184.00;5070237;28;20185;-75
2022/02/18 08:14:20;;;;;;;9.60;2.33;;;;;;;14.09;73.95;99188.91;5070789;28;20273;-76
2022/02/18 08:16:49;;;;;;;8.23;2.73;;;;;;;14.03;69.94;99188.03;5060267;28;20208;-79
2022/02/18 08:19:20;;;;;;;12.50;2.80;;;;;;;14.16;72.71;99197.59;5067825;28;20178;-79
2022/02/18 08:21:49;;;;;;;12.37;2.53;;;;;;;14.10;70.25;99185.13;5063700;28;20562;-77
2022/02/18 08:24:18;;;;;;;8.90;2.63;;;;;;;14.19;69.67;99186.28;5065324;28;20496;-83
2022/02/18 08:26:52;;;;;;;7.50;2.57;;;;;;;14.25;69.72;99187.97;5045527;28;20213;-76
2022/02/18 08:29:24;;;;;;;10.00;2.40;;;;;;;14.15;69.07;99192.44;5077564;22;20300;-75
2022/02/18 08:32:05;;;;;;;10.27;2.50;;;;;;;14.21;69.52;99176.09;5040901;28;20243;-77
2022/02/18 08:34:34;;;;;;;9.70;2.70;;;;;;;14.11;70.31;99181.34;5070484;28;20190;-75
2022/02/18 08:37:09;;;;;;;10.23;2.63;;;;;;;14.09;66.16;99184.28;5070772;28;20169;-75
2022/02/18 08:39:41;;;;;;;8.77;2.70;;;;;;;14.09;69.20;99183.50;5087015;22;20283;-75
2022/02/18 08:42:34;;;;;;;11.07;2.80;;;;;;;14.01;69.42;99176.66;5075854;28;20271;-75
2022/02/18 08:45:10;;;;;;;11.60;2.53;;;;;;;14.23;69.12;99178.53;5094072;28;20188;-75
2022/02/18 08:47:41;;;;;;;9.17;2.83;;;;;;;14.50;68.45;99184.75;5095400;22;20255;-77
2022/02/18 08:50:09;;;;;;;9.83;2.43;;;;;;;14.71;67.99;99185.72;5067142;28;20268;-81
2022/02/18 08:52:37;;;;;;;8.13;2.53;;;;;;;14.78;65.41;99181.78;5024759;28;20205;-88
2022/02/18 08:55:09;;;;;;;10.00;2.80;;;;;;;14.88;65.79;99181.81;5061887;28;20190;-76
2022/02/18 08:57:36;;;;;;;11.03;2.57;;;;;;;14.91;65.47;99185.91;5060622;28;20193;-83
2022/02/18 09:00:04;;;;;;;8.57;2.57;;;;;;;14.98;66.18;99176.50;5059856;28;20265;-89
2022/02/18 09:02:35;;;;;;;9.10;2.53;;;;;;;14.94;66.15;99179.97;5077597;28;20178;-86
2022/02/18 09:05:05;;;;;;;8.83;2.70;;;;;;;15.15;64.21;99164.75;5042751;28;20241;-86
2022/02/18 09:07:32;;;;;;;9.23;2.73;;;;;;;15.46;64.07;99173.84;5023676;28;20210;-82
2022/02/18 09:10:00;;;;;;;9.47;2.70;;;;;;;15.62;60.52;99172.88;5023247;28;20194;-82
2022/02/18 09:12:27;;;;;;;6.97;2.23;;;;;;;15.56;61.13;99168.53;5040069;28;20190;-89
2022/02/18 09:14:54;;;;;;;6.83;1.97;;;;;;;15.55;60.19;99165.00;5057211;28;20584;-87
2022/02/18 09:17:30;;;;;;;7.57;2.50;;;;;;;15.82;61.00;99162.97;5041402;28;20265;-77
2022/02/18 09:19:58;;;;;;;7.73;2.60;;;;;;;15.82;60.28;99162.97;5057459;28;20219;-88
2022/02/18 09:22:25;;;;;;;8.13;2.70;;;;;;;15.91;58.19;99157.06;5043008;28;20185;-85
2022/02/18 09:24:52;;;;;;;7.03;2.30;;;;;;;15.93;58.44;99174.63;5059451;28;20215;-82
2022/02/18 09:27:21;;;;;;;8.77;2.63;;;;;;;15.53;57.86;99159.06;5059530;28;20276;-87
2022/02/18 09:29:47;;;;;;;7.83;2.40;;;;;;;15.46;60.28;99155.75;5076804;28;20276;-90
2022/02/18 09:32:15;;;;;;;9.13;2.60;;;;;;;15.48;59.55;99150.09;5058617;28;20211;-86
2022/02/18 09:34:44;;;;;;;7.87;2.43;;;;;;;15.80;56.91;99156.22;5059398;28;20215;-88
2022/02/18 09:37:16;;;;;;;7.73;2.23;;;;;;;15.98;57.98;99144.09;5059288;28;20186;-88
2022/02/18 09:39:43;;;;;;;7.37;2.03;;;;;;;15.91;58.07;99147.03;5049348;28;20218;-88
2022/02/18 09:42:14;;;;;;;7.40;2.83;;;;;;;15.88;56.69;99147.59;5019260;28;20183;-83
2022/02/18 09:44:42;;;;;;;9.07;2.97;;;;;;;16.10;57.39;99131.16;5019671;28;20289;-83
2022/02/18 09:47:12;;;;;;;7.00;2.47;;;;;;;16.25;56.53;99125.78;5055554;28;20217;-87
2022/02/18 09:49:41;;;;;;;7.60;2.30;;;;;;;16.39;54.09;99126.06;5059270;28;20543;-87
2022/02/18 09:52:11;;;;;;;7.73;2.10;;;;;;;16.30;54.80;99107.69;5059356;28;20545;-86
2022/02/18 09:54:38;;;;;;;8.57;2.37;;;;;;;16.26;52.82;99112.00;5076272;28;20218;-87
2022/02/18 09:57:05;;;;;;;8.37;2.40;;;;;;;16.26;52.62;99117.41;5058995;28;20202;-89
2022/02/18 09:59:32;;;;;;;8.17;2.50;;;;;;;16.15;54.57;99126.56;5076187;28;20213;-79
2022/02/18 10:02:02;;;;;;;6.77;2.40;;;;;;;15.96;54.56;99108.44;5058750;28;20267;-87
2022/02/18 10:04:29;;;;;;;7.00;2.20;;;;;;;15.76;54.78;99115.41;5058283;28;20348;-89
2022/02/18 10:06:56;;;;;;;6.47;1.77;;;;;;;15.74;54.44;99109.47;5076224;28;20201;-80
2022/02/18 10:09:39;;;;;;;6.77;2.27;;;;;;;15.61;55.97;99106.44;5058548;28;20269;-88
2022/02/18 10:12:06;;;;;;;8.17;2.30;;;;;;;15.37;56.45;99108.75;5076127;28;20219;-85
2022/02/18 10:14:52;;;;;;;7.30;2.37;;;;;;;15.31;55.67;99101.69;5076181;28;20178;-81
2022/02/18 10:17:20;;;;;;;6.83;2.23;;;;;;;15.15;55.79;99113.50;5075855;28;20282;-89
2022/02/18 10:19:52;;;;;;;8.47;2.50;;;;;;;15.21;56.08;99109.75;5058670;28;20182;-87
2022/02/18 10:22:26;;;;;;;6.50;2.00;;;;;;;15.26;58.68;99115.97;5058559;28;20183;-83
2022/02/18 10:24:55;;;;;;;5.43;2.20;;;;;;;15.36;58.15;99107.94;5041995;28;20282;-89
2022/02/18 10:27:42;;;;;;;6.00;2.03;;;;;;;15.36;56.51;99099.84;5075536;28;20587;-86
2022/02/18 10:30:22;;;;;;;8.40;2.57;;;;;;;15.28;54.96;99096.81;5075731;28;20203;-78
2022/02/18 10:32:50;;;;;;;8.67;2.20;;;;;;;15.50;54.35;99093.94;5042669;28;20219;-77
2022/02/18 10:35:18;;;;;;;7.37;2.60;;;;;;;15.70;54.55;99088.66;5041573;28;20187;-76
2022/02/18 10:37:49;;;;;;;8.63;2.33;;;;;;;16.02;54.93;99073.06;5058383;28;20193;-91
2022/02/18 10:40:18;;;;;;;6.57;2.20;;;;;;;16.41;51.43;99077.94;5075271;28;20270;-84
2022/02/18 10:42:47;;;;;;;7.33;2.00;;;;;;;16.84;51.16;99073.88;5058344;28;20282;-90
2022/02/18 10:45:21;;;;;;;6.63;2.30;;;;;;;17.38;49.67;99058.53;5075242;28;20205;-82
2022/02/18 10:47:49;;;;;;;7.73;2.93;;;;;;;17.70;47.92;99052.72;5041225;28;20233;-88
2022/02/18 10:50:21;;;;;;;7.57;3.40;;;;;;;18.04;46.80;99047.38;5075562;28;20192;-87
2022/02/18 10:53:08;;;;;;;7.80;2.40;;;;;;;18.14;45.50;99055.44;5057928;28;20304;-83
2022/02/18 10:56:01;;;;;;;6.07;2.63;;;;;;;18.29;43.90;99043.66;5057622;28;20208;-75
2022/02/18 10:58:30;;;;;;;6.80;2.33;;;;;;;18.36;43.25;99036.00;5053976;28;20608;-85
2022/02/18 11:01:07;;;;;;;6.43;2.30;;;;;;;18.25;43.66;99023.59;5057769;28;20512;-82
2022/02/18 11:03:35;;;;;;;6.40;2.17;;;;;;;18.00;44.44;99017.31;5075435;28;20240;-81
2022/02/18 11:06:12;;;;;;;8.17;2.37;;;;;;;17.92;43.75;99011.66;5041218;28;20239;-84
2022/02/18 11:08:47;;;;;;;8.73;2.47;;;;;;;17.78;45.44;99010.69;5058022;28;20268;-86
2022/02/18 11:11:13;;;;;;;5.73;2.13;;;;;;;17.76;45.79;98985.78;5057478;28;20213;-82
2022/02/18 11:13:40;;;;;;;5.93;2.10;;;;;;;17.78;47.91;98989.81;5075522;28;20209;-89
2022/02/18 11:16:18;;;;;;;7.40;2.70;;;;;;;17.79;48.64;98983.31;5075193;28;20213;-88
2022/02/18 11:18:46;;;;;;;6.63;2.20;;;;;;;18.04;47.06;98971.47;5058035;28;20181;-86
2022/02/18 11:21:17;;;;;;;7.60;2.50;;;;;;;18.14;45.86;98965.16;5041216;28;20185;-88
2022/02/18 11:23:44;;;;;;;7.83;2.37;;;;;;;18.35;45.72;98967.38;5058102;28;20305;-87
2022/02/18 11:26:12;;;;;;;8.07;2.90;;;;;;;18.70;43.12;98973.59;5075019;28;20480;-83
2022/02/18 11:28:39;;;;;;;9.00;3.43;;;;;;;19.01;43.81;98966.69;5075202;28;20219;-79
2022/02/18 11:31:26;;;;;;;10.67;2.63;;;;;;;19.19;41.00;98962.38;5075212;28;20543;-87
2022/02/18 11:34:18;;;;;;;8.97;2.60;;;;;;;19.11;40.00;98952.19;5075352;28;20256;-89
2022/02/18 11:37:12;;;;;;;8.83;2.70;;;;;;;19.16;39.73;98949.41;5070310;28;20231;-87
2022/02/18 11:40:17;;;;;;;9.50;4.63;;;;;;;19.25;40.63;98934.06;5057368;28;20507;-79
2022/02/18 11:42:52;;;;;;;7.27;3.07;;;;;;;19.57;39.10;98938.78;5057244;28;20498;-83
2022/02/18 11:45:37;;;;;;;8.90;2.83;;;;;;;19.68;37.72;98929.41;5046419;28;20494;-83
2022/02/18 11:48:03;;;;;;;7.87;3.10;;;;;;;19.56;38.37;98918.16;5060327;28;20193;-86
2022/02/18 11:50:30;;;;;;;7.47;2.70;;;;;;;19.43;38.72;98916.16;5071588;28;20232;-88
2022/02/18 11:52:57;;;;;;;8.43;3.70;;;;;;;19.60;40.54;98921.91;5074884;28;20204;-83
2022/02/18 11:55:33;;;;;;;5.33;3.10;;;;;;;19.53;39.20;98911.41;5075435;28;20197;-86
2022/02/18 11:58:11;;;;;;;6.77;2.40;;;;;;;19.57;37.68;98907.00;5045549;28;20177;-83
2022/02/18 12:00:49;;;;;;;7.33;3.63;;;;;;;19.50;37.94;98890.28;5061572;28;20173;-85
2022/02/18 12:03:21;;;;;;;7.80;2.20;;;;;;;19.61;35.85;98886.28;5080549;28;20201;-84
2022/02/18 12:06:07;;;;;;;4.57;2.10;;;;;;;19.78;35.63;98896.63;5061616;28;20197;-78